QLK421 YSSY-YSCB
Flight info
| Callsign | QLK421 |
|---|---|
| Flight time | N/A |
| Altitude | 16000 |
| Route | WOL H65 CB |
| Aircraft | AT76/M-SDFGIRY/S |
Departure
| Time | 2026-05-04 09:40 |
|---|---|
| Airport | Sydney Kingsford Smith International Airport (YSSY) |
Arrival
| Time | N/A |
|---|---|
| Airport | Canberra Airport (YSCB) |
| Time | Latitude | Longitude | Altitude | Speed | Heading |
|---|---|---|---|---|---|
| 2026-05-04 08:48 | -33.93671 | 151.18165 | 27 ft | 0 kts | 218° |
| 2026-05-04 09:26 | -33.93686 | 151.18155 | 27 ft | 7 kts | 208° |
| 2026-05-04 09:26 | -33.93732 | 151.18126 | 27 ft | 4 kts | 208° |
| 2026-05-04 09:26 | -33.93773 | 151.18069 | 27 ft | 13 kts | 259° |
| 2026-05-04 09:27 | -33.93798 | 151.17956 | 27 ft | 15 kts | 255° |
| 2026-05-04 09:27 | -33.93822 | 151.17852 | 26 ft | 14 kts | 253° |
| 2026-05-04 09:27 | -33.93869 | 151.17769 | 28 ft | 8 kts | 167° |
| 2026-05-04 09:27 | -33.93939 | 151.17790 | 26 ft | 13 kts | 167° |
| 2026-05-04 09:28 | -33.94038 | 151.17815 | 30 ft | 16 kts | 168° |
| 2026-05-04 09:28 | -33.94148 | 151.17843 | 28 ft | 16 kts | 168° |
| 2026-05-04 09:28 | -33.94260 | 151.17872 | 26 ft | 17 kts | 167° |
| 2026-05-04 09:28 | -33.94373 | 151.17901 | 26 ft | 16 kts | 168° |
| 2026-05-04 09:29 | -33.94477 | 151.17893 | 26 ft | 15 kts | 208° |
| 2026-05-04 09:29 | -33.94585 | 151.17898 | 26 ft | 3 kts | 168° |
| 2026-05-04 09:29 | -33.94622 | 151.17907 | 26 ft | 9 kts | 168° |
| 2026-05-04 09:29 | -33.94673 | 151.17920 | 26 ft | 10 kts | 168° |
| 2026-05-04 09:30 | -33.94753 | 151.17941 | 26 ft | 14 kts | 168° |
| 2026-05-04 09:30 | -33.94861 | 151.17969 | 26 ft | 17 kts | 168° |
| 2026-05-04 09:30 | -33.94984 | 151.18001 | 27 ft | 19 kts | 168° |
| 2026-05-04 09:30 | -33.95077 | 151.18029 | 27 ft | 10 kts | 153° |
| 2026-05-04 09:31 | -33.95100 | 151.18099 | 27 ft | 8 kts | 84° |
| 2026-05-04 09:31 | -33.95091 | 151.18154 | 27 ft | 5 kts | 78° |
| 2026-05-04 09:31 | -33.95085 | 151.18188 | 27 ft | 4 kts | 78° |
| 2026-05-04 09:31 | -33.95079 | 151.18220 | 27 ft | 4 kts | 78° |
| 2026-05-04 09:32 | -33.95074 | 151.18250 | 27 ft | 4 kts | 78° |
| 2026-05-04 09:32 | -33.95069 | 151.18278 | 27 ft | 3 kts | 78° |
| 2026-05-04 09:34 | -33.95042 | 151.18424 | 27 ft | 6 kts | 81° |
| 2026-05-04 09:34 | -33.95044 | 151.18467 | 27 ft | 6 kts | 105° |
| 2026-05-04 09:34 | -33.95086 | 151.18518 | 27 ft | 12 kts | 149° |
| 2026-05-04 09:34 | -33.95156 | 151.18587 | 27 ft | 13 kts | 137° |
| 2026-05-04 09:35 | -33.95223 | 151.18660 | 26 ft | 13 kts | 139° |
| 2026-05-04 09:35 | -33.95309 | 151.18715 | 26 ft | 15 kts | 160° |
| 2026-05-04 09:35 | -33.95419 | 151.18745 | 26 ft | 17 kts | 168° |
| 2026-05-04 09:35 | -33.95544 | 151.18778 | 26 ft | 20 kts | 167° |
| 2026-05-04 09:37 | -33.96587 | 151.19049 | 27 ft | 23 kts | 168° |
| 2026-05-04 09:37 | -33.96749 | 151.19069 | 26 ft | 24 kts | 189° |
| 2026-05-04 09:38 | -33.96917 | 151.19090 | 27 ft | 24 kts | 168° |
| 2026-05-04 09:38 | -33.97073 | 151.19130 | 27 ft | 16 kts | 167° |
| 2026-05-04 09:38 | -33.97125 | 151.19206 | 26 ft | 10 kts | 81° |
| 2026-05-04 09:38 | -33.97113 | 151.19274 | 25 ft | 8 kts | 76° |
| 2026-05-04 09:39 | -33.97099 | 151.19340 | 22 ft | 8 kts | 76° |
| 2026-05-04 09:39 | -33.97073 | 151.19376 | 23 ft | 4 kts | 6° |
| 2026-05-04 09:39 | -33.97002 | 151.19358 | 21 ft | 31 kts | 351° |
| 2026-05-04 09:39 | -33.96591 | 151.19267 | 20 ft | 86 kts | 347° |
| 2026-05-04 09:40 | -33.95868 | 151.19045 | 37 ft | 125 kts | 351° |
| 2026-05-04 09:40 | -33.95013 | 151.18787 | 429 ft | 127 kts | 354° |
| 2026-05-04 09:40 | -33.94082 | 151.18724 | 835 ft | 135 kts | 360° |
| 2026-05-04 09:40 | -33.93186 | 151.18723 | 1470 ft | 126 kts | 1° |
| 2026-05-04 09:41 | -33.92308 | 151.18639 | 1978 ft | 129 kts | 352° |
| 2026-05-04 09:42 | -33.86042 | 151.24335 | 2801 ft | 238 kts | 87° |
| 2026-05-04 09:43 | -33.86423 | 151.26309 | 2860 ft | 248 kts | 97° |
| 2026-05-04 09:43 | -33.86904 | 151.28313 | 2919 ft | 250 kts | 98° |
| 2026-05-04 09:43 | -33.87411 | 151.30324 | 3011 ft | 249 kts | 98° |
| 2026-05-04 09:43 | -33.87918 | 151.32273 | 3221 ft | 241 kts | 99° |
| 2026-05-04 09:44 | -33.88425 | 151.34158 | 3425 ft | 232 kts | 99° |
| 2026-05-04 09:44 | -33.88931 | 151.35980 | 3640 ft | 225 kts | 99° |
| 2026-05-04 09:44 | -33.89436 | 151.37723 | 3856 ft | 220 kts | 100° |
| 2026-05-04 09:46 | -33.94817 | 151.47859 | 4928 ft | 236 kts | 158° |
| 2026-05-04 09:46 | -33.96371 | 151.48486 | 5077 ft | 234 kts | 159° |
| 2026-05-04 09:46 | -33.97892 | 151.49086 | 5321 ft | 228 kts | 159° |
| 2026-05-04 09:47 | -33.99386 | 151.49677 | 5616 ft | 222 kts | 160° |
| 2026-05-04 09:47 | -34.00839 | 151.50258 | 5910 ft | 216 kts | 160° |
| 2026-05-04 09:49 | -34.09776 | 151.52544 | 7679 ft | 160 kts | 244° |
| 2026-05-04 09:49 | -34.10132 | 151.51262 | 7646 ft | 168 kts | 260° |
| 2026-05-04 09:49 | -34.10471 | 151.49870 | 7672 ft | 179 kts | 257° |
| 2026-05-04 09:51 | -34.15164 | 151.42203 | 8562 ft | 195 kts | 237° |
| 2026-05-04 09:51 | -34.15985 | 151.40924 | 8717 ft | 195 kts | 237° |
| 2026-05-04 09:51 | -34.16817 | 151.39621 | 8883 ft | 195 kts | 237° |
| 2026-05-04 09:51 | -34.17648 | 151.38320 | 9013 ft | 196 kts | 237° |
| 2026-05-04 09:52 | -34.18490 | 151.37012 | 9171 ft | 196 kts | 237° |
| 2026-05-04 09:52 | -34.19320 | 151.35722 | 9322 ft | 197 kts | 237° |
| 2026-05-04 09:52 | -34.20164 | 151.34411 | 9478 ft | 198 kts | 237° |
| 2026-05-04 09:52 | -34.21013 | 151.33093 | 9629 ft | 199 kts | 237° |
| 2026-05-04 09:53 | -34.21860 | 151.31783 | 9759 ft | 200 kts | 237° |
| 2026-05-04 09:53 | -34.22720 | 151.30445 | 9904 ft | 200 kts | 237° |
| 2026-05-04 09:53 | -34.23578 | 151.29109 | 10035 ft | 200 kts | 237° |
| 2026-05-04 09:53 | -34.24433 | 151.27784 | 10095 ft | 205 kts | 237° |
| 2026-05-04 09:54 | -34.25322 | 151.26396 | 10083 ft | 212 kts | 237° |
| 2026-05-04 09:54 | -34.26232 | 151.24982 | 10070 ft | 217 kts | 236° |
| 2026-05-04 09:54 | -34.27175 | 151.23532 | 10056 ft | 221 kts | 236° |
| 2026-05-04 09:54 | -34.28132 | 151.22062 | 10045 ft | 224 kts | 236° |
| 2026-05-04 09:55 | -34.28777 | 151.21069 | 10044 ft | 225 kts | 236° |
| 2026-05-04 09:55 | -34.29656 | 151.19717 | 10095 ft | 223 kts | 237° |
| 2026-05-04 09:55 | -34.30373 | 151.18604 | 10126 ft | 223 kts | 237° |
| 2026-05-04 09:55 | -34.31315 | 151.17141 | 10164 ft | 223 kts | 237° |
| 2026-05-04 09:56 | -34.32265 | 151.15659 | 10248 ft | 220 kts | 237° |
| 2026-05-04 09:56 | -34.33196 | 151.14209 | 10382 ft | 216 kts | 237° |
| 2026-05-04 09:56 | -34.34103 | 151.12800 | 10525 ft | 212 kts | 237° |
| 2026-05-04 09:56 | -34.35002 | 151.11395 | 10665 ft | 209 kts | 237° |
| 2026-05-04 09:57 | -34.35884 | 151.10020 | 10809 ft | 207 kts | 237° |
| 2026-05-04 09:57 | -34.36762 | 151.08644 | 10957 ft | 205 kts | 237° |
| 2026-05-04 09:57 | -34.37622 | 151.07298 | 11097 ft | 203 kts | 238° |
| 2026-05-04 09:57 | -34.38490 | 151.05941 | 11248 ft | 201 kts | 238° |
| 2026-05-04 09:58 | -34.39334 | 151.04618 | 11394 ft | 200 kts | 238° |
| 2026-05-04 09:58 | -34.40195 | 151.03279 | 11553 ft | 199 kts | 237° |
| 2026-05-04 09:58 | -34.41042 | 151.01955 | 11708 ft | 198 kts | 238° |
| 2026-05-04 10:00 | -34.46845 | 150.92876 | 12769 ft | 192 kts | 238° |
| 2026-05-04 10:00 | -34.47666 | 150.91584 | 12924 ft | 192 kts | 238° |
| 2026-05-04 10:02 | -34.53021 | 150.83161 | 13970 ft | 186 kts | 239° |
| 2026-05-04 10:04 | -34.58863 | 150.73744 | 14186 ft | 213 kts | 239° |
| 2026-05-04 10:04 | -34.59757 | 150.72316 | 14199 ft | 214 kts | 239° |
| 2026-05-04 10:04 | -34.60641 | 150.70867 | 14283 ft | 213 kts | 240° |
| 2026-05-04 10:04 | -34.61509 | 150.69423 | 14333 ft | 213 kts | 240° |
| 2026-05-04 10:05 | -34.62384 | 150.67966 | 14392 ft | 213 kts | 240° |
| 2026-05-04 10:05 | -34.63253 | 150.66522 | 14460 ft | 214 kts | 240° |
| 2026-05-04 10:05 | -34.64132 | 150.65063 | 14521 ft | 214 kts | 240° |
| 2026-05-04 10:05 | -34.65007 | 150.63606 | 14583 ft | 214 kts | 240° |
| 2026-05-04 10:06 | -34.65891 | 150.62138 | 14667 ft | 214 kts | 240° |
| 2026-05-04 10:06 | -34.66774 | 150.60667 | 14735 ft | 215 kts | 240° |
| 2026-05-04 10:06 | -34.67646 | 150.59223 | 14779 ft | 215 kts | 240° |
| 2026-05-04 10:08 | -34.72934 | 150.50418 | 15107 ft | 215 kts | 240° |
| 2026-05-04 10:08 | -34.73822 | 150.48940 | 15128 ft | 216 kts | 240° |
| 2026-05-04 10:08 | -34.74693 | 150.47480 | 15189 ft | 215 kts | 240° |
| 2026-05-04 10:08 | -34.75583 | 150.45998 | 15264 ft | 215 kts | 240° |
| 2026-05-04 10:09 | -34.76467 | 150.44526 | 15316 ft | 216 kts | 240° |
| 2026-05-04 10:09 | -34.77352 | 150.43052 | 15305 ft | 218 kts | 240° |
| 2026-05-04 10:09 | -34.78250 | 150.41540 | 15234 ft | 220 kts | 240° |
| 2026-05-04 10:09 | -34.79153 | 150.40030 | 15079 ft | 228 kts | 240° |
| 2026-05-04 10:10 | -34.80113 | 150.38425 | 14865 ft | 237 kts | 239° |
| 2026-05-04 10:10 | -34.81088 | 150.36798 | 14757 ft | 241 kts | 239° |
| 2026-05-04 10:10 | -34.82094 | 150.35134 | 14623 ft | 245 kts | 239° |
| 2026-05-04 10:10 | -34.83103 | 150.33464 | 14489 ft | 247 kts | 239° |
| 2026-05-04 10:11 | -34.84118 | 150.31775 | 14334 ft | 248 kts | 239° |
| 2026-05-04 10:11 | -34.85143 | 150.30071 | 14205 ft | 249 kts | 239° |
| 2026-05-04 10:11 | -34.86166 | 150.28348 | 14053 ft | 251 kts | 239° |
| 2026-05-04 10:11 | -34.87196 | 150.26611 | 13949 ft | 253 kts | 239° |
| 2026-05-04 10:12 | -34.88224 | 150.24899 | 13800 ft | 253 kts | 239° |
| 2026-05-04 10:12 | -34.89272 | 150.23144 | 13622 ft | 254 kts | 239° |
| 2026-05-04 10:12 | -34.90300 | 150.21414 | 13492 ft | 254 kts | 239° |
| 2026-05-04 10:12 | -34.91344 | 150.19656 | 13365 ft | 255 kts | 239° |
| 2026-05-04 10:13 | -34.92391 | 150.17906 | 13234 ft | 255 kts | 239° |
| 2026-05-04 10:13 | -34.93422 | 150.16178 | 13147 ft | 254 kts | 239° |
| 2026-05-04 10:13 | -34.94449 | 150.14452 | 13090 ft | 249 kts | 239° |
| 2026-05-04 10:13 | -34.95462 | 150.12747 | 13080 ft | 245 kts | 240° |
| 2026-05-04 10:14 | -34.96456 | 150.11068 | 13068 ft | 243 kts | 240° |
| 2026-05-04 10:14 | -34.97443 | 150.09396 | 13073 ft | 241 kts | 240° |
| 2026-05-04 10:16 | -35.04376 | 149.97799 | 11954 ft | 228 kts | 240° |
| 2026-05-04 10:16 | -35.05278 | 149.96273 | 11824 ft | 216 kts | 241° |
| 2026-05-04 10:16 | -35.06165 | 149.94821 | 11695 ft | 210 kts | 237° |
| 2026-05-04 10:16 | -35.07048 | 149.93667 | 11593 ft | 207 kts | 232° |
| 2026-05-04 10:17 | -35.08062 | 149.92459 | 11477 ft | 206 kts | 232° |
| 2026-05-04 10:17 | -35.09089 | 149.91227 | 11337 ft | 206 kts | 233° |
| 2026-05-04 10:19 | -35.16306 | 149.81884 | 10535 ft | 223 kts | 235° |
| 2026-05-04 10:19 | -35.17374 | 149.80495 | 10427 ft | 224 kts | 235° |
| 2026-05-04 10:19 | -35.18425 | 149.79105 | 10307 ft | 225 kts | 236° |
| 2026-05-04 10:19 | -35.19515 | 149.77695 | 10173 ft | 227 kts | 235° |
| 2026-05-04 10:20 | -35.20605 | 149.76300 | 10052 ft | 227 kts | 234° |
| 2026-05-04 10:20 | -35.21683 | 149.74916 | 9925 ft | 227 kts | 235° |
| 2026-05-04 10:20 | -35.22766 | 149.73515 | 9805 ft | 227 kts | 235° |
| 2026-05-04 10:20 | -35.23862 | 149.72092 | 9627 ft | 228 kts | 235° |
| 2026-05-04 10:21 | -35.24951 | 149.70670 | 9477 ft | 229 kts | 234° |
| 2026-05-04 10:21 | -35.26031 | 149.69269 | 9312 ft | 228 kts | 234° |
| 2026-05-04 10:21 | -35.27129 | 149.67851 | 9159 ft | 228 kts | 234° |
| 2026-05-04 10:21 | -35.28209 | 149.66455 | 9009 ft | 228 kts | 234° |
| 2026-05-04 10:22 | -35.30383 | 149.63637 | 8709 ft | 225 kts | 234° |
| 2026-05-04 10:22 | -35.31461 | 149.62230 | 8566 ft | 226 kts | 234° |
| 2026-05-04 10:22 | -35.32526 | 149.60838 | 8404 ft | 225 kts | 235° |
| 2026-05-04 10:23 | -35.33586 | 149.59433 | 8266 ft | 224 kts | 234° |
| 2026-05-04 10:23 | -35.34655 | 149.58053 | 8128 ft | 224 kts | 233° |
| 2026-05-04 10:25 | -35.42089 | 149.48442 | 7035 ft | 207 kts | 232° |
| 2026-05-04 10:25 | -35.43039 | 149.47192 | 6856 ft | 199 kts | 233° |
| 2026-05-04 10:25 | -35.43969 | 149.45964 | 6733 ft | 190 kts | 233° |
| 2026-05-04 10:25 | -35.44856 | 149.44805 | 6648 ft | 182 kts | 234° |
| 2026-05-04 10:26 | -35.45707 | 149.43691 | 6546 ft | 175 kts | 234° |
| 2026-05-04 10:26 | -35.46506 | 149.42613 | 6448 ft | 169 kts | 235° |
| 2026-05-04 10:26 | -35.47294 | 149.41559 | 6358 ft | 166 kts | 234° |
| 2026-05-04 10:26 | -35.48074 | 149.40550 | 6241 ft | 162 kts | 234° |
| 2026-05-04 10:27 | -35.48834 | 149.39544 | 6167 ft | 159 kts | 234° |
| 2026-05-04 10:27 | -35.49586 | 149.38537 | 6074 ft | 161 kts | 233° |
| 2026-05-04 10:27 | -35.50363 | 149.37516 | 5978 ft | 165 kts | 233° |
| 2026-05-04 10:27 | -35.51143 | 149.36488 | 5878 ft | 167 kts | 232° |
| 2026-05-04 10:28 | -35.51936 | 149.35444 | 5774 ft | 168 kts | 232° |
| 2026-05-04 10:28 | -35.52742 | 149.34391 | 5677 ft | 169 kts | 231° |
| 2026-05-04 10:28 | -35.53550 | 149.33331 | 5574 ft | 170 kts | 231° |
| 2026-05-04 10:28 | -35.54348 | 149.32263 | 5458 ft | 170 kts | 231° |
| 2026-05-04 10:29 | -35.55110 | 149.31177 | 5401 ft | 164 kts | 240° |
| 2026-05-04 10:29 | -35.55419 | 149.29865 | 5351 ft | 158 kts | 260° |
| 2026-05-04 10:29 | -35.55575 | 149.28553 | 5361 ft | 153 kts | 262° |
| 2026-05-04 10:29 | -35.55707 | 149.27273 | 5361 ft | 149 kts | 262° |
| 2026-05-04 10:30 | -35.55833 | 149.26017 | 5386 ft | 147 kts | 262° |
| 2026-05-04 10:30 | -35.55962 | 149.24775 | 5389 ft | 148 kts | 262° |
| 2026-05-04 10:30 | -35.56098 | 149.23521 | 5389 ft | 148 kts | 262° |
| 2026-05-04 10:30 | -35.56233 | 149.22281 | 5384 ft | 148 kts | 262° |
| 2026-05-04 10:31 | -35.56104 | 149.21063 | 5269 ft | 149 kts | 297° |
| 2026-05-04 10:31 | -35.55191 | 149.20380 | 5188 ft | 163 kts | 331° |
| 2026-05-04 10:32 | -35.48185 | 149.19457 | 4393 ft | 182 kts | 351° |
| 2026-05-04 10:33 | -35.46963 | 149.19465 | 4187 ft | 169 kts | 351° |
| 2026-05-04 10:33 | -35.45827 | 149.19481 | 4001 ft | 159 kts | 352° |
| 2026-05-04 10:33 | -35.44754 | 149.19501 | 3885 ft | 145 kts | 353° |
| 2026-05-04 10:33 | -35.43779 | 149.19536 | 3726 ft | 135 kts | 351° |
| 2026-05-04 10:34 | -35.42883 | 149.19546 | 3585 ft | 126 kts | 352° |
| 2026-05-04 10:34 | -35.42008 | 149.19550 | 3433 ft | 124 kts | 352° |
| 2026-05-04 10:34 | -35.41165 | 149.19550 | 3298 ft | 122 kts | 354° |
| 2026-05-04 10:34 | -35.40304 | 149.19563 | 3180 ft | 125 kts | 353° |
| 2026-05-04 10:35 | -35.39412 | 149.19573 | 3045 ft | 128 kts | 354° |
| 2026-05-04 10:35 | -35.38528 | 149.19577 | 2908 ft | 128 kts | 355° |
| 2026-05-04 10:35 | -35.37624 | 149.19596 | 2798 ft | 129 kts | 354° |
| 2026-05-04 10:35 | -35.36735 | 149.19602 | 2656 ft | 128 kts | 354° |
| 2026-05-04 10:36 | -35.35838 | 149.19502 | 2533 ft | 130 kts | 351° |
| 2026-05-04 10:36 | -35.34957 | 149.19443 | 2468 ft | 129 kts | 358° |
| 2026-05-04 10:36 | -35.34054 | 149.19460 | 2366 ft | 129 kts | 356° |
| 2026-05-04 10:36 | -35.33137 | 149.19445 | 2243 ft | 136 kts | 356° |
| 2026-05-04 10:37 | -35.32188 | 149.19436 | 2083 ft | 136 kts | 358° |
| 2026-05-04 10:37 | -35.31672 | 149.19434 | 1957 ft | 138 kts | 357° |
| 2026-05-04 10:37 | -35.30453 | 149.19447 | 1882 ft | 127 kts | 358° |
| 2026-05-04 10:37 | -35.30165 | 149.19450 | 1877 ft | 124 kts | 355° |
| 2026-05-04 10:39 | -35.30113 | 149.19450 | 1875 ft | 123 kts | 357° |